sensor_id;sensor_type;location;lat;lon;timestamp;pressure;altitude;pressure_sealevel;temperature;humidity
9969;BME280;5025;48.890;9.278;2024-01-06T00:00:52;97611.00;;;5.92;87.63
9969;BME280;5025;48.890;9.278;2024-01-06T00:03:17;97607.50;;;5.92;87.63
9969;BME280;5025;48.890;9.278;2024-01-06T00:05:42;97602.38;;;5.90;87.57
9969;BME280;5025;48.890;9.278;2024-01-06T00:08:08;97606.09;;;5.89;87.68
9969;BME280;5025;48.890;9.278;2024-01-06T00:10:33;97613.09;;;5.90;87.70
9969;BME280;5025;48.890;9.278;2024-01-06T00:12:58;97620.06;;;5.91;87.78
9969;BME280;5025;48.890;9.278;2024-01-06T00:15:24;97623.81;;;5.90;87.78
9969;BME280;5025;48.890;9.278;2024-01-06T00:17:49;97626.34;;;5.85;87.93
9969;BME280;5025;48.890;9.278;2024-01-06T00:20:14;97616.53;;;5.79;87.90
9969;BME280;5025;48.890;9.278;2024-01-06T00:22:39;97618.41;;;5.79;88.13
9969;BME280;5025;48.890;9.278;2024-01-06T00:25:06;97618.63;;;5.77;88.04
9969;BME280;5025;48.890;9.278;2024-01-06T00:27:32;97620.72;;;5.75;88.28
9969;BME280;5025;48.890;9.278;2024-01-06T00:29:57;97615.38;;;5.75;88.26
9969;BME280;5025;48.890;9.278;2024-01-06T00:32:22;97621.53;;;5.75;88.47
9969;BME280;5025;48.890;9.278;2024-01-06T00:34:47;97624.06;;;5.70;88.38
9969;BME280;5025;48.890;9.278;2024-01-06T00:37:13;97627.78;;;5.69;88.66
9969;BME280;5025;48.890;9.278;2024-01-06T00:39:38;97627.78;;;5.69;88.76
9969;BME280;5025;48.890;9.278;2024-01-06T00:42:03;97628.59;;;5.70;88.78
9969;BME280;5025;48.890;9.278;2024-01-06T00:44:29;97635.81;;;5.69;88.74
9969;BME280;5025;48.890;9.278;2024-01-06T00:46:54;97625.91;;;5.70;88.97
9969;BME280;5025;48.890;9.278;2024-01-06T00:49:19;97626.16;;;5.68;88.89
9969;BME280;5025;48.890;9.278;2024-01-06T00:51:44;97635.03;;;5.69;88.89
9969;BME280;5025;48.890;9.278;2024-01-06T00:54:10;97638.72;;;5.68;88.94
9969;BME280;5025;48.890;9.278;2024-01-06T00:56:35;97632.34;;;5.69;89.06
9969;BME280;5025;48.890;9.278;2024-01-06T00:59:00;97639.75;;;5.67;89.04
9969;BME280;5025;48.890;9.278;2024-01-06T01:01:25;97642.66;;;5.65;88.95
9969;BME280;5025;48.890;9.278;2024-01-06T01:03:51;97640.66;;;5.61;89.17
9969;BME280;5025;48.890;9.278;2024-01-06T01:06:16;97652.00;;;5.63;88.95
9969;BME280;5025;48.890;9.278;2024-01-06T01:08:41;97655.47;;;5.63;89.15
9969;BME280;5025;48.890;9.278;2024-01-06T01:11:06;97653.16;;;5.67;89.25
9969;BME280;5025;48.890;9.278;2024-01-06T01:13:32;97660.38;;;5.66;89.05
9969;BME280;5025;48.890;9.278;2024-01-06T01:15:57;97654.81;;;5.68;89.28
9969;BME280;5025;48.890;9.278;2024-01-06T01:18:22;97663.41;;;5.70;89.26
9969;BME280;5025;48.890;9.278;2024-01-06T01:20:47;97672.06;;;5.72;89.12
9969;BME280;5025;48.890;9.278;2024-01-06T01:23:13;97669.38;;;5.72;89.21
9969;BME280;5025;48.890;9.278;2024-01-06T01:25:38;97668.94;;;5.75;89.34
9969;BME280;5025;48.890;9.278;2024-01-06T01:28:03;97675.09;;;5.75;89.12
9969;BME280;5025;48.890;9.278;2024-01-06T01:30:29;97676.75;;;5.77;89.23
9969;BME280;5025;48.890;9.278;2024-01-06T01:32:54;97674.88;;;5.77;88.99
9969;BME280;5025;48.890;9.278;2024-01-06T01:35:19;97680.81;;;5.79;89.07
9969;BME280;5025;48.890;9.278;2024-01-06T01:37:45;97689.91;;;5.78;88.99
9969;BME280;5025;48.890;9.278;2024-01-06T01:40:10;97687.47;;;5.77;89.19
9969;BME280;5025;48.890;9.278;2024-01-06T01:42:35;97684.78;;;5.77;89.37
9969;BME280;5025;48.890;9.278;2024-01-06T01:45:01;97685.00;;;5.75;89.29
9969;BME280;5025;48.890;9.278;2024-01-06T01:47:26;97686.84;;;5.74;89.26
9969;BME280;5025;48.890;9.278;2024-01-06T01:49:53;97685.81;;;5.75;89.14
9969;BME280;5025;48.890;9.278;2024-01-06T01:52:19;97691.19;;;5.75;89.33
9969;BME280;5025;48.890;9.278;2024-01-06T01:54:45;97694.66;;;5.76;89.16
9969;BME280;5025;48.890;9.278;2024-01-06T01:57:12;97692.81;;;5.77;89.22
9969;BME280;5025;48.890;9.278;2024-01-06T01:59:38;97682.91;;;5.77;89.38
9969;BME280;5025;48.890;9.278;2024-01-06T02:02:04;97688.06;;;5.79;89.05
9969;BME280;5025;48.890;9.278;2024-01-06T02:04:29;97689.47;;;5.81;89.12
9969;BME280;5025;48.890;9.278;2024-01-06T02:06:54;97698.31;;;5.82;88.90
9969;BME280;5025;48.890;9.278;2024-01-06T02:09:20;97690.50;;;5.80;88.84
9969;BME280;5025;48.890;9.278;2024-01-06T02:11:48;97698.75;;;5.79;88.91
9969;BME280;5025;48.890;9.278;2024-01-06T02:14:13;97693.63;;;5.77;88.93
9969;BME280;5025;48.890;9.278;2024-01-06T02:16:38;97696.91;;;5.79;88.87
9969;BME280;5025;48.890;9.278;2024-01-06T02:19:04;97690.72;;;5.79;89.03
9969;BME280;5025;48.890;9.278;2024-01-06T02:21:31;97696.66;;;5.81;88.79
9969;BME280;5025;48.890;9.278;2024-01-06T02:23:56;97707.38;;;5.81;88.84
9969;BME280;5025;48.890;9.278;2024-01-06T02:26:21;97705.53;;;5.81;88.66
9969;BME280;5025;48.890;9.278;2024-01-06T02:28:47;97712.16;;;5.79;88.71
9969;BME280;5025;48.890;9.278;2024-01-06T02:31:14;97709.72;;;5.77;88.72
9969;BME280;5025;48.890;9.278;2024-01-06T02:33:39;97712.59;;;5.75;89.21
9969;BME280;5025;48.890;9.278;2024-01-06T02:36:05;97724.13;;;5.76;88.63
9969;BME280;5025;48.890;9.278;2024-01-06T02:38:30;97725.19;;;5.75;88.85
9969;BME280;5025;48.890;9.278;2024-01-06T02:40:55;97723.31;;;5.75;88.82
9969;BME280;5025;48.890;9.278;2024-01-06T02:43:20;97722.75;;;5.73;88.96
9969;BME280;5025;48.890;9.278;2024-01-06T02:45:47;97719.22;;;5.73;88.69
9969;BME280;5025;48.890;9.278;2024-01-06T02:48:12;97728.31;;;5.72;88.64
9969;BME280;5025;48.890;9.278;2024-01-06T02:50:37;97726.09;;;5.69;88.57
9969;BME280;5025;48.890;9.278;2024-01-06T02:53:03;97720.13;;;5.67;88.52
9969;BME280;5025;48.890;9.278;2024-01-06T02:55:28;97723.84;;;5.66;88.30
9969;BME280;5025;48.890;9.278;2024-01-06T02:57:53;97720.34;;;5.65;88.55
9969;BME280;5025;48.890;9.278;2024-01-06T03:00:18;97727.78;;;5.63;88.53
9969;BME280;5025;48.890;9.278;2024-01-06T03:02:44;97724.88;;;5.65;88.62
9969;BME280;5025;48.890;9.278;2024-01-06T03:05:09;97729.44;;;5.64;88.51
9969;BME280;5025;48.890;9.278;2024-01-06T03:07:35;97733.94;;;5.64;88.52
9969;BME280;5025;48.890;9.278;2024-01-06T03:10:00;97736.41;;;5.65;88.54
9969;BME280;5025;48.890;9.278;2024-01-06T03:12:26;97735.00;;;5.63;88.55
9969;BME280;5025;48.890;9.278;2024-01-06T03:14:51;97735.25;;;5.61;88.32
9969;BME280;5025;48.890;9.278;2024-01-06T03:17:17;97728.31;;;5.53;88.47
9969;BME280;5025;48.890;9.278;2024-01-06T03:19:42;97736.34;;;5.53;88.37
9969;BME280;5025;48.890;9.278;2024-01-06T03:22:07;97732.84;;;5.53;88.32
9969;BME280;5025;48.890;9.278;2024-01-06T03:24:32;97728.13;;;5.48;88.54
9969;BME280;5025;48.890;9.278;2024-01-06T03:26:58;97733.94;;;5.45;88.51
9969;BME280;5025;48.890;9.278;2024-01-06T03:29:23;97730.69;;;5.43;88.34
9969;BME280;5025;48.890;9.278;2024-01-06T03:31:48;97730.69;;;5.43;88.35
9969;BME280;5025;48.890;9.278;2024-01-06T03:34:14;97722.66;;;5.43;88.25
9969;BME280;5025;48.890;9.278;2024-01-06T03:36:39;97724.94;;;5.39;88.29
9969;BME280;5025;48.890;9.278;2024-01-06T03:39:05;97720.69;;;5.32;88.15
9969;BME280;5025;48.890;9.278;2024-01-06T03:41:31;97724.94;;;5.39;87.95
9969;BME280;5025;48.890;9.278;2024-01-06T03:43:56;97721.00;;;5.42;87.89
9969;BME280;5025;48.890;9.278;2024-01-06T03:46:22;97721.00;;;5.42;87.45
9969;BME280;5025;48.890;9.278;2024-01-06T03:48:47;97717.72;;;5.40;87.61
9969;BME280;5025;48.890;9.278;2024-01-06T03:51:13;97721.88;;;5.36;87.59
9969;BME280;5025;48.890;9.278;2024-01-06T03:53:38;97721.28;;;5.34;87.10
9969;BME280;5025;48.890;9.278;2024-01-06T03:56:05;97724.84;;;5.28;86.78
9969;BME280;5025;48.890;9.278;2024-01-06T03:58:30;97720.31;;;5.10;85.85
9969;BME280;5025;48.890;9.278;2024-01-06T04:00:56;97727.78;;;5.01;85.51
9969;BME280;5025;48.890;9.278;2024-01-06T04:03:21;97722.88;;;4.98;85.39
9969;BME280;5025;48.890;9.278;2024-01-06T04:05:46;97727.22;;;4.92;85.25
9969;BME280;5025;48.890;9.278;2024-01-06T04:08:12;97729.47;;;4.95;85.50
9969;BME280;5025;48.890;9.278;2024-01-06T04:10:37;97731.53;;;4.93;85.18
9969;BME280;5025;48.890;9.278;2024-01-06T04:13:02;97730.69;;;4.99;85.13
9969;BME280;5025;48.890;9.278;2024-01-06T04:15:28;97733.56;;;4.98;85.14
9969;BME280;5025;48.890;9.278;2024-01-06T04:17:54;97727.34;;;5.04;85.01
9969;BME280;5025;48.890;9.278;2024-01-06T04:20:19;97728.22;;;4.98;84.59
9969;BME280;5025;48.890;9.278;2024-01-06T04:22:45;97731.19;;;4.90;84.67
9969;BME280;5025;48.890;9.278;2024-01-06T04:25:10;97734.88;;;4.89;84.87
9969;BME280;5025;48.890;9.278;2024-01-06T04:27:35;97738.19;;;4.84;84.92
9969;BME280;5025;48.890;9.278;2024-01-06T04:30:00;97743.34;;;4.85;85.02
9969;BME280;5025;48.890;9.278;2024-01-06T04:32:26;97745.22;;;4.78;85.27
9969;BME280;5025;48.890;9.278;2024-01-06T04:34:51;97751.41;;;4.79;85.30
9969;BME280;5025;48.890;9.278;2024-01-06T04:37:16;97747.66;;;4.87;85.26
9969;BME280;5025;48.890;9.278;2024-01-06T04:39:41;97754.81;;;4.93;85.39
9969;BME280;5025;48.890;9.278;2024-01-06T04:42:07;97751.41;;;5.04;84.63
9969;BME280;5025;48.890;9.278;2024-01-06T04:44:33;97751.13;;;5.12;84.53
9969;BME280;5025;48.890;9.278;2024-01-06T04:46:58;97751.13;;;5.12;83.98
9969;BME280;5025;48.890;9.278;2024-01-06T04:49:23;97747.00;;;5.16;84.01
9969;BME280;5025;48.890;9.278;2024-01-06T04:51:48;97742.66;;;5.15;83.88
9969;BME280;5025;48.890;9.278;2024-01-06T04:54:14;97762.19;;;5.23;83.97
9969;BME280;5025;48.890;9.278;2024-01-06T04:56:39;97760.09;;;5.25;83.75
9969;BME280;5025;48.890;9.278;2024-01-06T04:59:05;97756.75;;;5.29;83.62
9969;BME280;5025;48.890;9.278;2024-01-06T05:01:30;97758.19;;;5.32;83.46
9969;BME280;5025;48.890;9.278;2024-01-06T05:03:55;97759.97;;;5.38;82.92
9969;BME280;5025;48.890;9.278;2024-01-06T05:06:21;97767.34;;;5.43;83.22
9969;BME280;5025;48.890;9.278;2024-01-06T05:08:46;97765.25;;;5.45;83.08
9969;BME280;5025;48.890;9.278;2024-01-06T05:11:11;97769.38;;;5.47;82.90
9969;BME280;5025;48.890;9.278;2024-01-06T05:13:37;97768.31;;;5.48;82.66
9969;BME280;5025;48.890;9.278;2024-01-06T05:16:03;97772.63;;;5.49;82.71
9969;BME280;5025;48.890;9.278;2024-01-06T05:18:28;97780.44;;;5.51;82.55
9969;BME280;5025;48.890;9.278;2024-01-06T05:20:54;97778.66;;;5.45;82.57
9969;BME280;5025;48.890;9.278;2024-01-06T05:23:19;97785.03;;;5.25;82.75
9969;BME280;5025;48.890;9.278;2024-01-06T05:25:44;97782.56;;;5.24;82.90
9969;BME280;5025;48.890;9.278;2024-01-06T05:28:10;97779.81;;;5.30;82.93
9969;BME280;5025;48.890;9.278;2024-01-06T05:30:35;97781.84;;;5.35;82.73
9969;BME280;5025;48.890;9.278;2024-01-06T05:33:01;97784.13;;;5.31;82.64
9969;BME280;5025;48.890;9.278;2024-01-06T05:35:26;97794.28;;;5.23;82.71
9969;BME280;5025;48.890;9.278;2024-01-06T05:37:52;97794.78;;;5.13;83.20
9969;BME280;5025;48.890;9.278;2024-01-06T05:40:17;97797.19;;;5.21;82.89
9969;BME280;5025;48.890;9.278;2024-01-06T05:42:42;97790.16;;;5.27;82.84
9969;BME280;5025;48.890;9.278;2024-01-06T05:45:10;97801.00;;;5.32;82.76
9969;BME280;5025;48.890;9.278;2024-01-06T05:47:36;97793.34;;;5.35;82.74
9969;BME280;5025;48.890;9.278;2024-01-06T05:50:02;97797.47;;;5.38;82.48
9969;BME280;5025;48.890;9.278;2024-01-06T05:52:27;97795.38;;;5.40;82.48
9969;BME280;5025;48.890;9.278;2024-01-06T05:54:52;97801.31;;;5.42;82.51
9969;BME280;5025;48.890;9.278;2024-01-06T05:57:17;97801.31;;;5.42;82.43
9969;BME280;5025;48.890;9.278;2024-01-06T05:59:43;97798.06;;;5.40;82.49
9969;BME280;5025;48.890;9.278;2024-01-06T06:02:08;97802.59;;;5.39;82.52
9969;BME280;5025;48.890;9.278;2024-01-06T06:04:33;97809.56;;;5.41;82.42
9969;BME280;5025;48.890;9.278;2024-01-06T06:06:58;97808.75;;;5.40;82.40
9969;BME280;5025;48.890;9.278;2024-01-06T06:09:24;97817.38;;;5.42;82.52
9969;BME280;5025;48.890;9.278;2024-01-06T06:11:49;97829.38;;;5.39;82.44
9969;BME280;5025;48.890;9.278;2024-01-06T06:14:14;97832.63;;;5.42;82.38
9969;BME280;5025;48.890;9.278;2024-01-06T06:16:39;97847.66;;;5.43;82.32
9969;BME280;5025;48.890;9.278;2024-01-06T06:19:05;97850.56;;;5.41;82.64
9969;BME280;5025;48.890;9.278;2024-01-06T06:21:31;97859.84;;;5.38;82.31
9969;BME280;5025;48.890;9.278;2024-01-06T06:23:56;97852.63;;;5.39;82.32
9969;BME280;5025;48.890;9.278;2024-01-06T06:26:21;97844.59;;;5.39;82.49
9969;BME280;5025;48.890;9.278;2024-01-06T06:28:47;97848.31;;;5.38;82.38
9969;BME280;5025;48.890;9.278;2024-01-06T06:31:12;97840.72;;;5.35;82.50
9969;BME280;5025;48.890;9.278;2024-01-06T06:33:37;97840.50;;;5.36;82.46
9969;BME280;5025;48.890;9.278;2024-01-06T06:36:02;97844.59;;;5.39;82.62
9969;BME280;5025;48.890;9.278;2024-01-06T06:38:28;97844.81;;;5.37;82.60
9969;BME280;5025;48.890;9.278;2024-01-06T06:40:54;97847.69;;;5.36;82.59
9969;BME280;5025;48.890;9.278;2024-01-06T06:43:20;97854.13;;;5.35;82.51
9969;BME280;5025;48.890;9.278;2024-01-06T06:45:45;97856.78;;;5.35;82.54
9969;BME280;5025;48.890;9.278;2024-01-06T06:48:10;97854.56;;;5.32;82.74
9969;BME280;5025;48.890;9.278;2024-01-06T06:50:35;97868.53;;;5.34;82.69
9969;BME280;5025;48.890;9.278;2024-01-06T06:53:01;97873.28;;;5.32;82.79
9969;BME280;5025;48.890;9.278;2024-01-06T06:55:26;97871.06;;;5.29;82.83
9969;BME280;5025;48.890;9.278;2024-01-06T06:57:52;97875.19;;;5.25;82.87
9969;BME280;5025;48.890;9.278;2024-01-06T07:00:18;97875.84;;;5.20;82.90
9969;BME280;5025;48.890;9.278;2024-01-06T07:02:43;97881.19;;;5.20;83.02
9969;BME280;5025;48.890;9.278;2024-01-06T07:05:08;97881.41;;;5.18;83.12
9969;BME280;5025;48.890;9.278;2024-01-06T07:07:34;97880.38;;;5.19;83.12
9969;BME280;5025;48.890;9.278;2024-01-06T07:10:02;97875.84;;;5.20;83.11
9969;BME280;5025;48.890;9.278;2024-01-06T07:12:30;97884.72;;;5.20;83.22
9969;BME280;5025;48.890;9.278;2024-01-06T07:14:55;97885.50;;;5.21;83.04
9969;BME280;5025;48.890;9.278;2024-01-06T07:17:20;97888.63;;;5.18;82.99
9969;BME280;5025;48.890;9.278;2024-01-06T07:19:45;97885.34;;;5.16;82.98
9969;BME280;5025;48.890;9.278;2024-01-06T07:22:11;97887.41;;;5.14;83.15
9969;BME280;5025;48.890;9.278;2024-01-06T07:24:36;97893.81;;;5.13;83.25
9969;BME280;5025;48.890;9.278;2024-01-06T07:27:02;97898.53;;;5.11;83.39
9969;BME280;5025;48.890;9.278;2024-01-06T07:29:28;97906.34;;;5.12;83.35
9969;BME280;5025;48.890;9.278;2024-01-06T07:31:53;97901.00;;;5.12;83.30
9969;BME280;5025;48.890;9.278;2024-01-06T07:34:19;97908.22;;;5.12;83.16
9969;BME280;5025;48.890;9.278;2024-01-06T07:36:44;97912.56;;;5.13;83.32
9969;BME280;5025;48.890;9.278;2024-01-06T07:39:09;97905.94;;;5.15;83.34
9969;BME280;5025;48.890;9.278;2024-01-06T07:41:34;97904.31;;;5.14;83.15
9969;BME280;5025;48.890;9.278;2024-01-06T07:44:00;97910.47;;;5.15;83.20
9969;BME280;5025;48.890;9.278;2024-01-06T07:46:27;97912.13;;;5.16;83.39
9969;BME280;5025;48.890;9.278;2024-01-06T07:48:52;97907.16;;;5.19;83.41
9969;BME280;5025;48.890;9.278;2024-01-06T07:51:17;97907.16;;;5.19;83.41
9969;BME280;5025;48.890;9.278;2024-01-06T07:53:43;97914.78;;;5.16;83.49
9969;BME280;5025;48.890;9.278;2024-01-06T07:56:08;97910.09;;;5.11;83.93
9969;BME280;5025;48.890;9.278;2024-01-06T07:58:33;97914.38;;;5.12;84.02
9969;BME280;5025;48.890;9.278;2024-01-06T08:00:59;97913.34;;;5.13;83.92
9969;BME280;5025;48.890;9.278;2024-01-06T08:03:24;97906.78;;;5.09;84.08
9969;BME280;5025;48.890;9.278;2024-01-06T08:05:50;97917.50;;;5.09;84.34
9969;BME280;5025;48.890;9.278;2024-01-06T08:08:15;97910.69;;;5.13;84.31
9969;BME280;5025;48.890;9.278;2024-01-06T08:10:42;97913.13;;;5.15;84.19
9969;BME280;5025;48.890;9.278;2024-01-06T08:13:07;97914.16;;;5.20;84.07
9969;BME280;5025;48.890;9.278;2024-01-06T08:15:32;97919.06;;;5.24;83.98
9969;BME280;5025;48.890;9.278;2024-01-06T08:17:58;97915.34;;;5.25;84.03
9969;BME280;5025;48.890;9.278;2024-01-06T08:20:23;97930.16;;;5.27;83.93
9969;BME280;5025;48.890;9.278;2024-01-06T08:22:48;97921.91;;;5.29;83.79
9969;BME280;5025;48.890;9.278;2024-01-06T08:25:14;97919.81;;;5.31;83.85
9969;BME280;5025;48.890;9.278;2024-01-06T08:27:39;97923.72;;;5.35;83.73
9969;BME280;5025;48.890;9.278;2024-01-06T08:30:05;97911.97;;;5.36;83.55
9969;BME280;5025;48.890;9.278;2024-01-06T08:32:31;97922.22;;;5.39;83.54
9969;BME280;5025;48.890;9.278;2024-01-06T08:34:56;97921.44;;;5.38;83.69
9969;BME280;5025;48.890;9.278;2024-01-06T08:37:21;97922.03;;;5.41;83.81
9969;BME280;5025;48.890;9.278;2024-01-06T08:39:47;97934.38;;;5.42;83.61
9969;BME280;5025;48.890;9.278;2024-01-06T08:42:12;97934.22;;;5.36;83.51
9969;BME280;5025;48.890;9.278;2024-01-06T08:44:37;97933.16;;;5.37;83.66
9969;BME280;5025;48.890;9.278;2024-01-06T08:47:03;97929.84;;;5.42;83.44
9969;BME280;5025;48.890;9.278;2024-01-06T08:49:28;97940.16;;;5.38;83.29
9969;BME280;5025;48.890;9.278;2024-01-06T08:51:53;97946.97;;;5.41;83.45
9969;BME280;5025;48.890;9.278;2024-01-06T08:54:19;97947.81;;;5.35;83.47
9969;BME280;5025;48.890;9.278;2024-01-06T08:56:45;97946.81;;;5.29;83.66
9969;BME280;5025;48.890;9.278;2024-01-06T08:59:10;97947.88;;;5.21;83.74
9969;BME280;5025;48.890;9.278;2024-01-06T09:01:35;97945.03;;;5.16;83.84
9969;BME280;5025;48.890;9.278;2024-01-06T09:04:02;97958.91;;;5.07;83.74
9969;BME280;5025;48.890;9.278;2024-01-06T09:06:27;97958.31;;;4.98;84.41
9969;BME280;5025;48.890;9.278;2024-01-06T09:08:53;97962.84;;;4.91;85.34
9969;BME280;5025;48.890;9.278;2024-01-06T09:11:18;97967.16;;;4.98;85.21
9969;BME280;5025;48.890;9.278;2024-01-06T09:13:43;97964.25;;;5.07;85.12
9969;BME280;5025;48.890;9.278;2024-01-06T09:16:08;97963.41;;;5.13;85.21
9969;BME280;5025;48.890;9.278;2024-01-06T09:18:34;97967.69;;;5.14;85.09
9969;BME280;5025;48.890;9.278;2024-01-06T09:20:59;97968.28;;;5.23;85.20
9969;BME280;5025;48.890;9.278;2024-01-06T09:23:24;97975.66;;;5.27;85.10
9969;BME280;5025;48.890;9.278;2024-01-06T09:25:49;97966.19;;;5.25;84.72
9969;BME280;5025;48.890;9.278;2024-01-06T09:28:17;97973.38;;;5.31;84.51
9969;BME280;5025;48.890;9.278;2024-01-06T09:30:42;97975.84;;;5.32;84.16
9969;BME280;5025;48.890;9.278;2024-01-06T09:33:07;97977.47;;;5.33;84.04
9969;BME280;5025;48.890;9.278;2024-01-06T09:35:35;97985.63;;;5.45;83.61
9969;BME280;5025;48.890;9.278;2024-01-06T09:38:00;97986.09;;;5.35;83.37
9969;BME280;5025;48.890;9.278;2024-01-06T09:40:26;97987.75;;;5.36;83.10
9969;BME280;5025;48.890;9.278;2024-01-06T09:42:52;97994.31;;;5.41;83.07
9969;BME280;5025;48.890;9.278;2024-01-06T09:45:18;97988.75;;;5.42;82.75
9969;BME280;5025;48.890;9.278;2024-01-06T09:47:49;97996.00;;;5.35;82.96
9969;BME280;5025;48.890;9.278;2024-01-06T09:50:18;97997.06;;;5.27;83.23
9969;BME280;5025;48.890;9.278;2024-01-06T09:52:45;98007.78;;;5.27;83.60
9969;BME280;5025;48.890;9.278;2024-01-06T09:55:17;98010.81;;;5.37;83.49
9969;BME280;5025;48.890;9.278;2024-01-06T09:57:45;98008.13;;;5.37;83.45
9969;BME280;5025;48.890;9.278;2024-01-06T10:00:11;98013.78;;;5.23;83.77
9969;BME280;5025;48.890;9.278;2024-01-06T10:02:37;98005.56;;;5.17;84.37
9969;BME280;5025;48.890;9.278;2024-01-06T10:05:03;98007.19;;;5.18;84.77
9969;BME280;5025;48.890;9.278;2024-01-06T10:07:28;98008.06;;;5.12;84.74
9969;BME280;5025;48.890;9.278;2024-01-06T10:09:54;98000.50;;;5.02;84.94
9969;BME280;5025;48.890;9.278;2024-01-06T10:12:24;98004.38;;;5.07;85.38
9969;BME280;5025;48.890;9.278;2024-01-06T10:14:50;98002.47;;;5.14;85.42
9969;BME280;5025;48.890;9.278;2024-01-06T10:17:15;98005.81;;;5.09;85.79
9969;BME280;5025;48.890;9.278;2024-01-06T10:19:41;98001.69;;;5.13;86.25
9969;BME280;5025;48.890;9.278;2024-01-06T10:22:09;98007.69;;;5.02;86.76
9969;BME280;5025;48.890;9.278;2024-01-06T10:24:37;98011.00;;;4.97;87.65
9969;BME280;5025;48.890;9.278;2024-01-06T10:27:02;98003.97;;;5.03;87.74
9969;BME280;5025;48.890;9.278;2024-01-06T10:29:28;98013.81;;;5.16;87.54
9969;BME280;5025;48.890;9.278;2024-01-06T10:31:53;98010.28;;;5.22;87.41
9969;BME280;5025;48.890;9.278;2024-01-06T10:34:19;98002.91;;;5.17;87.78
9969;BME280;5025;48.890;9.278;2024-01-06T10:36:44;98005.75;;;5.23;87.99
9969;BME280;5025;48.890;9.278;2024-01-06T10:39:09;97999.75;;;5.27;87.79
9969;BME280;5025;48.890;9.278;2024-01-06T10:41:35;98009.59;;;5.33;87.61
9969;BME280;5025;48.890;9.278;2024-01-06T10:44:02;98007.19;;;5.25;87.89
9969;BME280;5025;48.890;9.278;2024-01-06T10:46:30;98001.88;;;5.12;88.90
9969;BME280;5025;48.890;9.278;2024-01-06T10:48:57;98014.59;;;5.23;89.21
9969;BME280;5025;48.890;9.278;2024-01-06T10:51:23;98013.75;;;5.29;89.06
9969;BME280;5025;48.890;9.278;2024-01-06T10:53:48;98014.56;;;5.30;88.86
9969;BME280;5025;48.890;9.278;2024-01-06T10:56:15;98013.19;;;5.20;89.43
9969;BME280;5025;48.890;9.278;2024-01-06T10:58:46;98005.72;;;5.29;89.76
9969;BME280;5025;48.890;9.278;2024-01-06T11:01:13;98006.47;;;5.43;89.24
9969;BME280;5025;48.890;9.278;2024-01-06T11:03:39;98001.31;;;5.42;89.26
9969;BME280;5025;48.890;9.278;2024-01-06T11:06:08;97995.16;;;5.34;89.35
9969;BME280;5025;48.890;9.278;2024-01-06T11:09:04;97998.84;;;5.40;89.75
9969;BME280;5025;48.890;9.278;2024-01-06T11:11:27;98000.50;;;5.41;89.94
9969;BME280;5025;48.890;9.278;2024-01-06T11:13:52;97998.69;;;5.35;90.36
9969;BME280;5025;48.890;9.278;2024-01-06T11:16:37;98003.06;;;5.23;90.96
9969;BME280;5025;48.890;9.278;2024-01-06T11:19:03;97999.03;;;5.07;92.03
9969;BME280;5025;48.890;9.278;2024-01-06T11:21:48;97997.81;;;5.02;92.91
9969;BME280;5025;48.890;9.278;2024-01-06T11:24:19;97994.75;;;4.99;93.43
9969;BME280;5025;48.890;9.278;2024-01-06T11:26:51;97992.22;;;5.11;93.57
9969;BME280;5025;48.890;9.278;2024-01-06T11:29:18;97998.19;;;5.13;93.42
9969;BME280;5025;48.890;9.278;2024-01-06T11:32:16;97982.34;;;5.05;93.72
9969;BME280;5025;48.890;9.278;2024-01-06T11:34:41;97988.00;;;4.90;94.87
9969;BME280;5025;48.890;9.278;2024-01-06T11:37:07;97987.78;;;4.84;95.62
9969;BME280;5025;48.890;9.278;2024-01-06T11:39:37;97988.38;;;4.93;95.52
9969;BME280;5025;48.890;9.278;2024-01-06T11:42:05;97981.78;;;4.96;95.79
9969;BME280;5025;48.890;9.278;2024-01-06T11:44:36;97977.84;;;5.05;95.87
9969;BME280;5025;48.890;9.278;2024-01-06T11:47:02;97975.13;;;5.12;95.89
9969;BME280;5025;48.890;9.278;2024-01-06T11:49:28;97966.94;;;5.07;95.85
9969;BME280;5025;48.890;9.278;2024-01-06T11:51:53;97973.13;;;5.00;96.12
9969;BME280;5025;48.890;9.278;2024-01-06T11:54:20;97970.41;;;5.07;96.54
9969;BME280;5025;48.890;9.278;2024-01-06T11:56:46;97974.53;;;5.03;96.97
9969;BME280;5025;48.890;9.278;2024-01-06T11:59:11;97974.75;;;5.08;96.83
9969;BME280;5025;48.890;9.278;2024-01-06T12:01:38;97979.03;;;5.16;96.77
9969;BME280;5025;48.890;9.278;2024-01-06T12:04:04;97971.81;;;5.16;96.62
9969;BME280;5025;48.890;9.278;2024-01-06T12:06:30;97968.88;;;5.25;96.45
9969;BME280;5025;48.890;9.278;2024-01-06T12:09:06;97963.09;;;5.28;96.25
9969;BME280;5025;48.890;9.278;2024-01-06T12:11:31;97967.91;;;5.19;95.95
9969;BME280;5025;48.890;9.278;2024-01-06T12:13:56;97966.19;;;5.25;96.35
9969;BME280;5025;48.890;9.278;2024-01-06T12:16:22;97963.53;;;5.25;96.17
9969;BME280;5025;48.890;9.278;2024-01-06T12:18:52;97967.25;;;5.24;95.87
9969;BME280;5025;48.890;9.278;2024-01-06T12:21:17;97967.03;;;5.25;95.94
9969;BME280;5025;48.890;9.278;2024-01-06T12:23:42;97963.03;;;5.34;95.97
9969;BME280;5025;48.890;9.278;2024-01-06T12:26:07;97961.63;;;5.32;95.62
9969;BME280;5025;48.890;9.278;2024-01-06T12:28:35;97961.00;;;5.30;95.39
9969;BME280;5025;48.890;9.278;2024-01-06T12:31:04;97964.97;;;5.27;95.37
9969;BME280;5025;48.890;9.278;2024-01-06T12:33:30;97958.00;;;5.19;95.38
9969;BME280;5025;48.890;9.278;2024-01-06T12:35:56;97962.34;;;5.14;95.56
9969;BME280;5025;48.890;9.278;2024-01-06T12:38:22;97958.44;;;5.16;95.60
9969;BME280;5025;48.890;9.278;2024-01-06T12:40:49;97955.28;;;5.26;95.51
9969;BME280;5025;48.890;9.278;2024-01-06T12:43:14;97956.34;;;5.18;95.47
9969;BME280;5025;48.890;9.278;2024-01-06T12:45:39;97958.22;;;5.18;95.83
9969;BME280;5025;48.890;9.278;2024-01-06T12:48:05;97959.00;;;5.25;95.84
9969;BME280;5025;48.890;9.278;2024-01-06T12:50:30;97951.53;;;5.34;95.54
9969;BME280;5025;48.890;9.278;2024-01-06T12:52:55;97955.88;;;5.28;95.48
9969;BME280;5025;48.890;9.278;2024-01-06T12:55:21;97957.53;;;5.29;95.50
9969;BME280;5025;48.890;9.278;2024-01-06T12:57:46;97960.69;;;5.19;95.57
9969;BME280;5025;48.890;9.278;2024-01-06T13:00:12;97960.09;;;5.11;95.59
9969;BME280;5025;48.890;9.278;2024-01-06T13:02:38;97958.69;;;5.08;95.67
9969;BME280;5025;48.890;9.278;2024-01-06T13:05:04;97969.78;;;5.12;96.08
9969;BME280;5025;48.890;9.278;2024-01-06T13:07:29;97959.50;;;5.09;96.02
9969;BME280;5025;48.890;9.278;2024-01-06T13:09:55;97956.56;;;5.17;95.81
9969;BME280;5025;48.890;9.278;2024-01-06T13:12:20;97956.97;;;5.20;95.64
9969;BME280;5025;48.890;9.278;2024-01-06T13:14:46;97963.91;;;5.28;95.44
9969;BME280;5025;48.890;9.278;2024-01-06T13:17:15;97967.75;;;5.39;94.86
9969;BME280;5025;48.890;9.278;2024-01-06T13:19:41;97963.03;;;5.41;94.85
9969;BME280;5025;48.890;9.278;2024-01-06T13:22:06;97969.41;;;5.40;94.65
9969;BME280;5025;48.890;9.278;2024-01-06T13:24:32;97972.06;;;5.40;94.65